Glorysun — V7NS9 — position and weather

sailwx.info

Track history (hours):
 
Tides and Currents Weather Stations Pressure Air Temp Water Temp Dewpoint Dewpoint Depression Visibility Wind Speed Wind Dir Waves Ship Positions

Glorysun

Last reported at 2017-Oct-27 00:57 UTC. Time now 2017-Nov-24 14:59 UTC.
Position N 38°23' W 128°06'.
Warning: this ship's position is 28 days out of date.

Length 234 m; draft 8.4 m.

Type: Cargo ship. MMSI: 538003012.

Date/timePositionNaut miles runAvg speedWind from/ knotsBaromVisibWave heightAir tempDewpointWater temp
2017-Oct-27 00:57N 38°23' W 128°06'510.5
2017-Oct-27 00:30N 38°21' W 127°60'611.1
2017-Oct-26 23:57N 38°20' W 127°52'713.3
2017-Oct-26 23:27N 38°20' W 127°44'613.6
2017-Oct-26 23:00N 38°20' W 127°36'713.4
2017-Oct-26 22:30N 38°20' W 127°27'713.1
2017-Oct-26 22:00N 38°19' W 127°19'612.8
2017-Oct-26 21:30N 38°19' W 127°11'612.6
2017-Oct-26 21:00N 38°19' W 127°03'712.4
2017-Oct-26 20:28N 38°18' W 126°54'7612.7
2017-Oct-26 14:28N 38°15' W 125°17'1511.0
2017-Oct-26 13:05N 38°14' W 124°58'110.7
2017-Oct-26 13:00N 38°14' W 124°57'510.6
2017-Oct-26 12:31N 38°14' W 124°50'510.1
2017-Oct-26 12:00N 38°13' W 124°44'5 9.8
2017-Oct-26 11:30N 38°13' W 124°37'510.2
2017-Oct-26 11:00N 38°13' W 124°31'510.4
2017-Oct-26 10:30N 38°13' W 124°24'510.0
2017-Oct-26 10:00N 38°12' W 124°18'510.4
2017-Oct-26 09:30N 38°12' W 124°11'510.6
2017-Oct-26 09:00N 38°12' W 124°05'611.0
2017-Oct-26 08:30N 38°12' W 123°58'611.1
2017-Oct-26 08:00N 38°11' W 123°50'611.7
2017-Oct-26 07:30N 38°11' W 123°43'611.7
2017-Oct-26 07:00N 38°11' W 123°36'612.1
2017-Oct-26 06:30N 38°11' W 123°28'611.4
2017-Oct-26 06:00N 38°10' W 123°21'611.7
2017-Oct-26 05:30N 38°05' W 123°16'611.8
2017-Oct-26 05:00N 38°01' W 123°11'611.6
2017-Oct-26 04:30N 37°57' W 123°05'611.7
2017-Oct-26 04:00N 37°54' W 122°59'611.7
2017-Oct-26 03:30N 37°51' W 122°53'611.7
2017-Oct-26 03:00N 37°48' W 122°46'5 9.7
2017-Oct-26 02:30N 37°46' W 122°41'510.2
2017-Oct-26 02:00N 37°47' W 122°35'612.3
2017-Oct-26 01:30N 37°50' W 122°28'4 7.3
2017-Oct-26 01:00N 37°53' W 122°26'4 8.4
2017-Oct-26 00:30N 37°57' W 122°27'510.0
2017-Oct-26 00:00N 38°02' W 122°23'5 9.3
2017-Oct-25 23:30N 38°03' W 122°18'5 9.1
2017-Oct-25 23:00N 38°03' W 122°12'3 6.4
2017-Oct-25 22:30N 38°02' W 122°08'0 0.0
2017-Oct-25 16:04N 38°02' W 122°08'0 0.0
2017-Oct-25 15:58N 38°02' W 122°08'0 0.0
2017-Oct-24 17:04N 38°02' W 122°08'0 0.0
2017-Oct-24 16:58N 38°02' W 122°08'0 0.0
2017-Oct-24 16:16N 38°02' W 122°08'0 0.0
2017-Oct-24 15:46N 38°02' W 122°08'0 0.0
2017-Oct-24 15:28N 38°02' W 122°08'0 0.0
2017-Oct-24 14:46N 38°02' W 122°08'0 0.0
2017-Oct-24 14:22N 38°02' W 122°08'0 0.0
2017-Oct-24 13:46N 38°02' W 122°08'0 0.0
2017-Oct-24 13:22N 38°02' W 122°08'0 0.0
2017-Oct-24 12:46N 38°02' W 122°08'0 0.0
2017-Oct-24 12:28N 38°02' W 122°08'0 0.0
2017-Oct-24 11:04N 38°02' W 122°08'0 0.0
2017-Oct-24 10:52N 38°02' W 122°08'0 0.0
2017-Oct-24 10:28N 38°02' W 122°08'0 0.0
2017-Oct-24 09:46N 38°02' W 122°08'0 0.0
2017-Oct-23 14:52N 38°02' W 122°08'0 0.0
2017-Oct-23 14:22N 38°02' W 122°08'0 0.0
2017-Oct-23 13:58N 38°02' W 122°08'0 0.0
2017-Oct-23 13:22N 38°02' W 122°08'0 0.0
2017-Oct-23 12:16N 38°02' W 122°08'0 0.0
2017-Oct-23 11:58N 38°02' W 122°08'0 0.0
2017-Oct-23 11:28N 38°02' W 122°08'0 0.0
2017-Oct-23 09:04N 38°02' W 122°08'0 0.0
2017-Oct-23 08:10N 38°02' W 122°08'0 0.0
2017-Oct-21 14:58N 38°02' W 122°08'0 0.0
2017-Oct-20 02:06N 38°02' W 122°08'0 0.6
2017-Oct-20 02:00N 38°02' W 122°08'5 6.4
2017-Oct-20 01:13N 38°04' W 122°14'210.2
2017-Oct-20 01:00N 38°04' W 122°17'5 9.7
2017-Oct-20 00:30N 38°02' W 122°22'4 7.1
2017-Oct-20 00:00N 37°59' W 122°25'4 7.5
2017-Oct-19 23:30N 37°56' W 122°27'510.8
2017-Oct-19 23:00N 37°51' W 122°24'510.8
2017-Oct-19 22:30N 37°46' W 122°20'0 0.0
2017-Oct-19 21:59N 37°46' W 122°20'0 0.0
2017-Oct-19 21:29N 37°46' W 122°20'0 0.0
2017-Oct-19 20:59N 37°46' W 122°20'0 0.1
2017-Oct-19 20:29N 37°46' W 122°20'0 0.2
2017-Oct-19 19:59N 37°46' W 122°20'0 0.2
2017-Oct-19 19:29N 37°46' W 122°20'0 0.1
2017-Oct-19 18:59N 37°46' W 122°20'0 0.0
2017-Oct-19 18:29N 37°46' W 122°20'0 0.1
2017-Oct-19 17:59N 37°46' W 122°20'0 0.0
2017-Oct-19 17:29N 37°46' W 122°20'0 0.0
2017-Oct-19 16:59N 37°46' W 122°20'0 0.0
2017-Oct-19 16:29N 37°46' W 122°20'0 0.0
2017-Oct-19 15:59N 37°46' W 122°20'0 0.0
2017-Oct-19 15:29N 37°46' W 122°20'0 0.0
2017-Oct-19 14:59N 37°46' W 122°20'0 0.0
2017-Oct-19 14:29N 37°46' W 122°20'0 0.1
2017-Oct-19 13:59N 37°46' W 122°20'0 0.2
2017-Oct-19 13:29N 37°46' W 122°20'0 0.1
2017-Oct-19 12:59N 37°46' W 122°20'0 0.0
2017-Oct-19 12:29N 37°46' W 122°20'0 0.0
2017-Oct-19 11:59N 37°46' W 122°20'0 0.0
2017-Oct-19 11:29N 37°46' W 122°20'0 0.0
2017-Oct-19 10:59N 37°46' W 122°20'0 0.0
2017-Oct-19 10:29N 37°46' W 122°20'0 0.0
2017-Oct-19 09:59N 37°46' W 122°20'0 0.0
2017-Oct-19 09:29N 37°46' W 122°20'0 0.0
2017-Oct-19 08:59N 37°46' W 122°20'0 0.1
2017-Oct-19 08:29N 37°46' W 122°20'0 0.1
2017-Oct-19 07:59N 37°46' W 122°20'0 0.2
2017-Oct-19 07:29N 37°46' W 122°20'0 0.1
2017-Oct-19 06:59N 37°46' W 122°20'0 0.0
2017-Oct-19 06:29N 37°46' W 122°20'0 0.0
2017-Oct-19 05:59N 37°46' W 122°20'0 0.0
2017-Oct-19 05:29N 37°46' W 122°20'0 0.0
2017-Oct-19 04:59N 37°46' W 122°20'0 0.0
2017-Oct-19 04:29N 37°46' W 122°20'0 0.0
2017-Oct-19 03:59N 37°46' W 122°20'0 0.0
2017-Oct-19 03:29N 37°46' W 122°20'0 0.0
2017-Oct-19 02:59N 37°46' W 122°20'0 0.0
2017-Oct-19 02:29N 37°46' W 122°20'0 0.0
2017-Oct-19 01:59N 37°46' W 122°20'0 0.2
2017-Oct-19 01:29N 37°46' W 122°20'0 0.2
2017-Oct-19 00:59N 37°46' W 122°20'0 0.0
2017-Oct-19 00:29N 37°46' W 122°20'0 0.0
2017-Oct-18 23:59N 37°46' W 122°20'0 0.0
2017-Oct-18 23:29N 37°46' W 122°20'0 0.0
2017-Oct-18 22:59N 37°46' W 122°20'0 0.0
2017-Oct-18 22:29N 37°46' W 122°20'0 0.0
2017-Oct-18 21:59N 37°46' W 122°20'0 0.0
2017-Oct-18 21:29N 37°46' W 122°20'0 0.0
2017-Oct-18 20:56N 37°46' W 122°20'0 0.1
2017-Oct-18 20:29N 37°46' W 122°20'0 0.1
2017-Oct-18 19:59N 37°46' W 122°20'0 0.2
2017-Oct-18 19:29N 37°46' W 122°20'0 0.2
2017-Oct-18 18:59N 37°46' W 122°20'0 0.1
2017-Oct-18 18:29N 37°46' W 122°20'0 0.1
2017-Oct-18 17:59N 37°46' W 122°20'0 0.1
2017-Oct-18 17:29N 37°46' W 122°20'0 0.0
2017-Oct-18 16:59N 37°46' W 122°20'0 0.0
2017-Oct-18 16:29N 37°46' W 122°20'0 0.0
2017-Oct-18 15:59N 37°46' W 122°20'0 0.0
2017-Oct-18 15:29N 37°46' W 122°20'0 0.0
2017-Oct-18 14:59N 37°46' W 122°20'0 0.0
2017-Oct-18 13:59N 37°46' W 122°20'0 0.0
2017-Oct-18 13:29N 37°46' W 122°20'0 0.3
2017-Oct-18 12:59N 37°46' W 122°20'0 0.1
2017-Oct-18 12:29N 37°46' W 122°20'0 0.0
2017-Oct-18 11:59N 37°46' W 122°20'0 0.0
2017-Oct-18 11:29N 37°46' W 122°20'0 0.0
2017-Oct-18 10:59N 37°46' W 122°20'0 0.0
2017-Oct-18 10:29N 37°46' W 122°20'0 0.0
2017-Oct-18 09:59N 37°46' W 122°20'0 0.0
2017-Oct-18 09:29N 37°46' W 122°20'0 0.0
2017-Oct-18 08:59N 37°46' W 122°20'0 0.0
2017-Oct-18 08:29N 37°46' W 122°20'0 0.0
2017-Oct-18 07:59N 37°46' W 122°20'0 0.3
2017-Oct-18 07:29N 37°46' W 122°20'0 0.2
2017-Oct-18 06:59N 37°46' W 122°20'0 0.1
2017-Oct-18 06:29N 37°46' W 122°20'0 0.1
2017-Oct-18 05:59N 37°46' W 122°20'0 0.3
2017-Oct-18 05:30N 37°46' W 122°20'510.4
2017-Oct-18 05:00N 37°49' W 122°26'714.5
2017-Oct-18 04:30N 37°47' W 122°34'611.7
2017-Oct-18 04:00N 37°44' W 122°41'4 8.5
2017-Oct-18 03:30N 37°40' W 122°40'612.8
2017-Oct-18 03:01N 37°34' W 122°40'714.1
2017-Oct-18 02:30N 37°27' W 122°40'714.0
2017-Oct-18 02:01N 37°20' W 122°40'713.7
2017-Oct-18 01:30N 37°13' W 122°40'713.9
2017-Oct-18 01:00N 37°06' W 122°40'713.9
2017-Oct-18 00:30N 36°59' W 122°40'713.3
2017-Oct-18 00:00N 36°52' W 122°39'612.7
2017-Oct-17 23:30N 36°46' W 122°40'611.8
2017-Oct-17 23:00N 36°40' W 122°37'510.4
2017-Oct-17 22:30N 36°36' W 122°35'2 4.5
2017-Oct-17 22:00N 36°34' W 122°33'2 5.0
2017-Oct-17 21:30N 36°31' W 122°32'611.7
2017-Oct-17 21:00N 36°26' W 122°28'612.3
2017-Oct-17 20:30N 36°21' W 122°25'612.4
2017-Oct-17 20:00N 36°15' W 122°21'612.7
2017-Oct-17 19:30N 36°10' W 122°17'612.8
2017-Oct-17 19:00N 36°04' W 122°14'612.8
2017-Oct-17 18:30N 35°59' W 122°10'612.8
2017-Oct-17 18:00N 35°53' W 122°06'713.1
2017-Oct-17 17:30N 35°47' W 122°02'1213.4
2017-Oct-17 16:37N 35°37' W 121°55'113.5
2017-Oct-17 16:30N 35°35' W 121°55'713.3
2017-Oct-17 16:00N 35°29' W 121°51'713.6
2017-Oct-17 15:30N 35°23' W 121°47'713.4
2017-Oct-17 15:00N 35°18' W 121°43'713.1
2017-Oct-17 14:30N 35°12' W 121°39'612.7
2017-Oct-17 14:00N 35°06' W 121°36'612.7
2017-Oct-17 13:30N 35°00' W 121°32'613.1
2017-Oct-17 13:00N 34°55' W 121°28'713.1
2017-Oct-17 12:30N 34°49' W 121°25'713.3
2017-Oct-17 12:00N 34°43' W 121°21'713.3
2017-Oct-17 11:30N 34°37' W 121°17'713.4
2017-Oct-17 11:00N 34°31' W 121°13'713.4
2017-Oct-17 10:30N 34°25' W 121°10'713.7
2017-Oct-17 10:00N 34°19' W 121°06'713.2
2017-Oct-17 09:29N 34°13' W 121°02'713.0
2017-Oct-17 08:57N 34°07' W 120°58'613.3
2017-Oct-17 08:29N 34°02' W 120°54'713.2
2017-Oct-17 07:58N 33°55' W 120°51'713.5
2017-Oct-17 07:27N 33°49' W 120°47'813.5
2017-Oct-17 06:52N 33°42' W 120°42'513.5
2017-Oct-17 06:29N 33°38' W 120°39'613.3
2017-Oct-17 06:00N 33°32' W 120°36'713.3
2017-Oct-17 05:30N 33°26' W 120°32'713.3
2017-Oct-17 05:00N 33°20' W 120°29'712.9
2017-Oct-17 04:29N 33°14' W 120°26'612.7
2017-Oct-17 04:00N 33°08' W 120°23'613.0
2017-Oct-17 03:30N 33°03' W 120°19'713.1
2017-Oct-17 03:00N 32°58' W 120°14'713.2
2017-Oct-17 02:30N 32°52' W 120°10'713.1
2017-Oct-17 01:59N 32°46' W 120°07'613.0
2017-Oct-17 01:30N 32°41' W 120°03'712.3
2017-Oct-17 00:58N 32°35' W 119°59'  
Track history (hours):
 
Tides and Currents Weather Stations Pressure Air Temp Water Temp Dewpoint Dewpoint Depression Visibility Wind Speed Wind Dir Waves Ship Positions

Glorysun

Last reported at 2017-Oct-27 00:57 UTC. Time now 2017-Nov-24 14:59 UTC.
Position N 38°23' W 128°06'.
Warning: this ship's position is 28 days out of date.

Length 234 m; draft 8.4 m.

Type: Cargo ship. MMSI: 538003012.

Date/timePositionNaut miles runAvg speedWind from/ knotsBaromVisibWave heightAir tempDewpointWater temp
2017-Oct-27 00:57N 38°23' W 128°06'510.5
2017-Oct-27 00:30N 38°21' W 127°60'611.1
2017-Oct-26 23:57N 38°20' W 127°52'713.3
2017-Oct-26 23:27N 38°20' W 127°44'613.6
2017-Oct-26 23:00N 38°20' W 127°36'713.4
2017-Oct-26 22:30N 38°20' W 127°27'713.1
2017-Oct-26 22:00N 38°19' W 127°19'612.8
2017-Oct-26 21:30N 38°19' W 127°11'612.6
2017-Oct-26 21:00N 38°19' W 127°03'712.4
2017-Oct-26 20:28N 38°18' W 126°54'7612.7
2017-Oct-26 14:28N 38°15' W 125°17'1511.0
2017-Oct-26 13:05N 38°14' W 124°58'110.7
2017-Oct-26 13:00N 38°14' W 124°57'510.6
2017-Oct-26 12:31N 38°14' W 124°50'510.1
2017-Oct-26 12:00N 38°13' W 124°44'5 9.8
2017-Oct-26 11:30N 38°13' W 124°37'510.2
2017-Oct-26 11:00N 38°13' W 124°31'510.4
2017-Oct-26 10:30N 38°13' W 124°24'510.0
2017-Oct-26 10:00N 38°12' W 124°18'510.4
2017-Oct-26 09:30N 38°12' W 124°11'510.6
2017-Oct-26 09:00N 38°12' W 124°05'611.0
2017-Oct-26 08:30N 38°12' W 123°58'611.1
2017-Oct-26 08:00N 38°11' W 123°50'611.7
2017-Oct-26 07:30N 38°11' W 123°43'611.7
2017-Oct-26 07:00N 38°11' W 123°36'612.1
2017-Oct-26 06:30N 38°11' W 123°28'611.4
2017-Oct-26 06:00N 38°10' W 123°21'611.7
2017-Oct-26 05:30N 38°05' W 123°16'611.8
2017-Oct-26 05:00N 38°01' W 123°11'611.6
2017-Oct-26 04:30N 37°57' W 123°05'611.7
2017-Oct-26 04:00N 37°54' W 122°59'611.7
2017-Oct-26 03:30N 37°51' W 122°53'611.7
2017-Oct-26 03:00N 37°48' W 122°46'5 9.7
2017-Oct-26 02:30N 37°46' W 122°41'510.2
2017-Oct-26 02:00N 37°47' W 122°35'612.3
2017-Oct-26 01:30N 37°50' W 122°28'4 7.3
2017-Oct-26 01:00N 37°53' W 122°26'4 8.4
2017-Oct-26 00:30N 37°57' W 122°27'510.0
2017-Oct-26 00:00N 38°02' W 122°23'5 9.3
2017-Oct-25 23:30N 38°03' W 122°18'5 9.1
2017-Oct-25 23:00N 38°03' W 122°12'3 6.4
2017-Oct-25 22:30N 38°02' W 122°08'0 0.0
2017-Oct-25 16:04N 38°02' W 122°08'0 0.0
2017-Oct-25 15:58N 38°02' W 122°08'0 0.0
2017-Oct-24 17:04N 38°02' W 122°08'0 0.0
2017-Oct-24 16:58N 38°02' W 122°08'0 0.0
2017-Oct-24 16:16N 38°02' W 122°08'0 0.0
2017-Oct-24 15:46N 38°02' W 122°08'0 0.0
2017-Oct-24 15:28N 38°02' W 122°08'0 0.0
2017-Oct-24 14:46N 38°02' W 122°08'0 0.0
2017-Oct-24 14:22N 38°02' W 122°08'0 0.0
2017-Oct-24 13:46N 38°02' W 122°08'0 0.0
2017-Oct-24 13:22N 38°02' W 122°08'0 0.0
2017-Oct-24 12:46N 38°02' W 122°08'0 0.0
2017-Oct-24 12:28N 38°02' W 122°08'0 0.0
2017-Oct-24 11:04N 38°02' W 122°08'0 0.0
2017-Oct-24 10:52N 38°02' W 122°08'0 0.0
2017-Oct-24 10:28N 38°02' W 122°08'0 0.0
2017-Oct-24 09:46N 38°02' W 122°08'0 0.0
2017-Oct-23 14:52N 38°02' W 122°08'0 0.0
2017-Oct-23 14:22N 38°02' W 122°08'0 0.0
2017-Oct-23 13:58N 38°02' W 122°08'0 0.0
2017-Oct-23 13:22N 38°02' W 122°08'0 0.0
2017-Oct-23 12:16N 38°02' W 122°08'0 0.0
2017-Oct-23 11:58N 38°02' W 122°08'0 0.0
2017-Oct-23 11:28N 38°02' W 122°08'0 0.0
2017-Oct-23 09:04N 38°02' W 122°08'0 0.0
2017-Oct-23 08:10N 38°02' W 122°08'0 0.0
2017-Oct-21 14:58N 38°02' W 122°08'0 0.0
2017-Oct-20 02:06N 38°02' W 122°08'0 0.6
2017-Oct-20 02:00N 38°02' W 122°08'5 6.4
2017-Oct-20 01:13N 38°04' W 122°14'210.2
2017-Oct-20 01:00N 38°04' W 122°17'5 9.7
2017-Oct-20 00:30N 38°02' W 122°22'4 7.1
2017-Oct-20 00:00N 37°59' W 122°25'4 7.5
2017-Oct-19 23:30N 37°56' W 122°27'510.8
2017-Oct-19 23:00N 37°51' W 122°24'510.8
2017-Oct-19 22:30N 37°46' W 122°20'0 0.0
2017-Oct-19 21:59N 37°46' W 122°20'0 0.0
2017-Oct-19 21:29N 37°46' W 122°20'0 0.0
2017-Oct-19 20:59N 37°46' W 122°20'0 0.1
2017-Oct-19 20:29N 37°46' W 122°20'0 0.2
2017-Oct-19 19:59N 37°46' W 122°20'0 0.2
2017-Oct-19 19:29N 37°46' W 122°20'0 0.1
2017-Oct-19 18:59N 37°46' W 122°20'0 0.0
2017-Oct-19 18:29N 37°46' W 122°20'0 0.1
2017-Oct-19 17:59N 37°46' W 122°20'0 0.0
2017-Oct-19 17:29N 37°46' W 122°20'0 0.0
2017-Oct-19 16:59N 37°46' W 122°20'0 0.0
2017-Oct-19 16:29N 37°46' W 122°20'0 0.0
2017-Oct-19 15:59N 37°46' W 122°20'0 0.0
2017-Oct-19 15:29N 37°46' W 122°20'0 0.0
2017-Oct-19 14:59N 37°46' W 122°20'0 0.0
2017-Oct-19 14:29N 37°46' W 122°20'0 0.1
2017-Oct-19 13:59N 37°46' W 122°20'0 0.2
2017-Oct-19 13:29N 37°46' W 122°20'0 0.1
2017-Oct-19 12:59N 37°46' W 122°20'0 0.0
2017-Oct-19 12:29N 37°46' W 122°20'0 0.0
2017-Oct-19 11:59N 37°46' W 122°20'0 0.0
2017-Oct-19 11:29N 37°46' W 122°20'0 0.0
2017-Oct-19 10:59N 37°46' W 122°20'0 0.0
2017-Oct-19 10:29N 37°46' W 122°20'0 0.0
2017-Oct-19 09:59N 37°46' W 122°20'0 0.0
2017-Oct-19 09:29N 37°46' W 122°20'0 0.0
2017-Oct-19 08:59N 37°46' W 122°20'0 0.1
2017-Oct-19 08:29N 37°46' W 122°20'0 0.1
2017-Oct-19 07:59N 37°46' W 122°20'0 0.2
2017-Oct-19 07:29N 37°46' W 122°20'0 0.1
2017-Oct-19 06:59N 37°46' W 122°20'0 0.0
2017-Oct-19 06:29N 37°46' W 122°20'0 0.0
2017-Oct-19 05:59N 37°46' W 122°20'0 0.0
2017-Oct-19 05:29N 37°46' W 122°20'0 0.0
2017-Oct-19 04:59N 37°46' W 122°20'0 0.0
2017-Oct-19 04:29N 37°46' W 122°20'0 0.0
2017-Oct-19 03:59N 37°46' W 122°20'0 0.0
2017-Oct-19 03:29N 37°46' W 122°20'0 0.0
2017-Oct-19 02:59N 37°46' W 122°20'0 0.0
2017-Oct-19 02:29N 37°46' W 122°20'0 0.0
2017-Oct-19 01:59N 37°46' W 122°20'0 0.2
2017-Oct-19 01:29N 37°46' W 122°20'0 0.2
2017-Oct-19 00:59N 37°46' W 122°20'0 0.0
2017-Oct-19 00:29N 37°46' W 122°20'0 0.0
2017-Oct-18 23:59N 37°46' W 122°20'0 0.0
2017-Oct-18 23:29N 37°46' W 122°20'0 0.0
2017-Oct-18 22:59N 37°46' W 122°20'0 0.0
2017-Oct-18 22:29N 37°46' W 122°20'0 0.0
2017-Oct-18 21:59N 37°46' W 122°20'0 0.0
2017-Oct-18 21:29N 37°46' W 122°20'0 0.0
2017-Oct-18 20:56N 37°46' W 122°20'0 0.1
2017-Oct-18 20:29N 37°46' W 122°20'0 0.1
2017-Oct-18 19:59N 37°46' W 122°20'0 0.2
2017-Oct-18 19:29N 37°46' W 122°20'0 0.2
2017-Oct-18 18:59N 37°46' W 122°20'0 0.1
2017-Oct-18 18:29N 37°46' W 122°20'0 0.1
2017-Oct-18 17:59N 37°46' W 122°20'0 0.1
2017-Oct-18 17:29N 37°46' W 122°20'0 0.0
2017-Oct-18 16:59N 37°46' W 122°20'0 0.0
2017-Oct-18 16:29N 37°46' W 122°20'0 0.0
2017-Oct-18 15:59N 37°46' W 122°20'0 0.0
2017-Oct-18 15:29N 37°46' W 122°20'0 0.0
2017-Oct-18 14:59N 37°46' W 122°20'0 0.0
2017-Oct-18 13:59N 37°46' W 122°20'0 0.0
2017-Oct-18 13:29N 37°46' W 122°20'0 0.3
2017-Oct-18 12:59N 37°46' W 122°20'0 0.1
2017-Oct-18 12:29N 37°46' W 122°20'0 0.0
2017-Oct-18 11:59N 37°46' W 122°20'0 0.0
2017-Oct-18 11:29N 37°46' W 122°20'0 0.0
2017-Oct-18 10:59N 37°46' W 122°20'0 0.0
2017-Oct-18 10:29N 37°46' W 122°20'0 0.0
2017-Oct-18 09:59N 37°46' W 122°20'0 0.0
2017-Oct-18 09:29N 37°46' W 122°20'0 0.0
2017-Oct-18 08:59N 37°46' W 122°20'0 0.0
2017-Oct-18 08:29N 37°46' W 122°20'0 0.0
2017-Oct-18 07:59N 37°46' W 122°20'0 0.3
2017-Oct-18 07:29N 37°46' W 122°20'0 0.2
2017-Oct-18 06:59N 37°46' W 122°20'0 0.1
2017-Oct-18 06:29N 37°46' W 122°20'0 0.1
2017-Oct-18 05:59N 37°46' W 122°20'0 0.3
2017-Oct-18 05:30N 37°46' W 122°20'510.4
2017-Oct-18 05:00N 37°49' W 122°26'714.5
2017-Oct-18 04:30N 37°47' W 122°34'611.7
2017-Oct-18 04:00N 37°44' W 122°41'4 8.5
2017-Oct-18 03:30N 37°40' W 122°40'612.8
2017-Oct-18 03:01N 37°34' W 122°40'714.1
2017-Oct-18 02:30N 37°27' W 122°40'714.0
2017-Oct-18 02:01N 37°20' W 122°40'713.7
2017-Oct-18 01:30N 37°13' W 122°40'713.9
2017-Oct-18 01:00N 37°06' W 122°40'713.9
2017-Oct-18 00:30N 36°59' W 122°40'713.3
2017-Oct-18 00:00N 36°52' W 122°39'612.7
2017-Oct-17 23:30N 36°46' W 122°40'611.8
2017-Oct-17 23:00N 36°40' W 122°37'510.4
2017-Oct-17 22:30N 36°36' W 122°35'2 4.5
2017-Oct-17 22:00N 36°34' W 122°33'2 5.0
2017-Oct-17 21:30N 36°31' W 122°32'611.7
2017-Oct-17 21:00N 36°26' W 122°28'612.3
2017-Oct-17 20:30N 36°21' W 122°25'612.4
2017-Oct-17 20:00N 36°15' W 122°21'612.7
2017-Oct-17 19:30N 36°10' W 122°17'612.8
2017-Oct-17 19:00N 36°04' W 122°14'612.8
2017-Oct-17 18:30N 35°59' W 122°10'612.8
2017-Oct-17 18:00N 35°53' W 122°06'713.1
2017-Oct-17 17:30N 35°47' W 122°02'1213.4
2017-Oct-17 16:37N 35°37' W 121°55'113.5
2017-Oct-17 16:30N 35°35' W 121°55'713.3
2017-Oct-17 16:00N 35°29' W 121°51'713.6
2017-Oct-17 15:30N 35°23' W 121°47'713.4
2017-Oct-17 15:00N 35°18' W 121°43'713.1
2017-Oct-17 14:30N 35°12' W 121°39'612.7
2017-Oct-17 14:00N 35°06' W 121°36'612.7
2017-Oct-17 13:30N 35°00' W 121°32'613.1
2017-Oct-17 13:00N 34°55' W 121°28'713.1
2017-Oct-17 12:30N 34°49' W 121°25'713.3
2017-Oct-17 12:00N 34°43' W 121°21'713.3
2017-Oct-17 11:30N 34°37' W 121°17'713.4
2017-Oct-17 11:00N 34°31' W 121°13'713.4
2017-Oct-17 10:30N 34°25' W 121°10'713.7
2017-Oct-17 10:00N 34°19' W 121°06'713.2
2017-Oct-17 09:29N 34°13' W 121°02'713.0
2017-Oct-17 08:57N 34°07' W 120°58'613.3
2017-Oct-17 08:29N 34°02' W 120°54'713.2
2017-Oct-17 07:58N 33°55' W 120°51'713.5
2017-Oct-17 07:27N 33°49' W 120°47'813.5
2017-Oct-17 06:52N 33°42' W 120°42'513.5
2017-Oct-17 06:29N 33°38' W 120°39'613.3
2017-Oct-17 06:00N 33°32' W 120°36'713.3
2017-Oct-17 05:30N 33°26' W 120°32'713.3
2017-Oct-17 05:00N 33°20' W 120°29'712.9
2017-Oct-17 04:29N 33°14' W 120°26'612.7
2017-Oct-17 04:00N 33°08' W 120°23'613.0
2017-Oct-17 03:30N 33°03' W 120°19'713.1
2017-Oct-17 03:00N 32°58' W 120°14'713.2
2017-Oct-17 02:30N 32°52' W 120°10'713.1
2017-Oct-17 01:59N 32°46' W 120°07'613.0
2017-Oct-17 01:30N 32°41' W 120°03'712.3
2017-Oct-17 00:58N 32°35' W 119°59'  

Dump ship's entire track history